Aérodrome :
LOGIN :

S'inscrire | Disclaimer

   EN    FR    IT 

 










Légende :    VFR   VFR Marginal   IFR   IFR Intensif   IFR Très Intensif
Visi : 
Plafond : 
>= 8 km
>= 3000ft
5 à 8 km
1000 à 3000 ft
1500m à 5 km
500 à 1000 ft
800 à 1500m
200 à 500 ft
< 800m
< 200 ft
Symboles :   Orages  Brouillard  Fortes neiges  Fortes précipitations  Vent > 20 kt
SIGMETs :   Divers  Orages  Givrage  Turbulence  Onde Orograph.  Cendres Volcan.






- Altitude de l'aérodrome : 5600 ft
- Code IATA : SMV


LSZS - Samedan

DERNIER METAR :
  • 261450Z 31007KT 280V350 9999 FEW050 15/03 Q1021 RMK S TL170

METARs EXPIRÉS :
  • 261420Z 32006KT 280V010 9999 FEW050 15/00 Q1021 RMK R TL170
  • 261350Z 32007KT 280V010 9999 FEW050 15/01 Q1021 RMK Q TL170
  • 261320Z 28007KT 210V340 9999 FEW050 15/00 Q1021 RMK P TL170
  • 261250Z 30006KT 240V350 9999 FEW050 15/01 Q1021 RMK O TL170
  • 261220Z VRB05KT 9999 FEW050 15/M00 Q1021 RMK N TL170
  • 261150Z 30007KT 250V360 9999 FEW050 14/00 Q1021 RMK M TL170
  • 261120Z 16004KT 090V250 9999 FEW050 14/M00 Q1021 RMK L TL170
  • 261050Z VRB03KT 9999 FEW050 13/00 Q1021 RMK K TL170
  • 261020Z 21003KT 150V260 9999 FEW050 13/01 Q1021 RMK J TL170
  • 260950Z VRB01KT 9999 FEW050 13/00 Q1021 RMK I TL170

TAF TAF LSZS
Valide du 26 à 15h jusqu'au 27 à 00h UTC


261425Z 2615/2624 32005KT 9999 FEW050 TX14/2615Z
ATIS : +41 81 834 93 24



MET'MAP, la Météo Aéronautique d'un coup d'oeil ! - Copyright ORBIFLY Décembre 2007 - Disclaimer

ORBIFLY MET'MAP TEAM :

Programmation & Développement : Alexandra Zaïnal
Sur une idée originale de : Baudouin d'Aumeries
Soutien technique & logistique : Manuel Goepfert
Assistance : Marc-Olivier Méhu




SOURCES & CREDITS :

   NOAA